North American — WBL7959 — position and weather

sailwx.info

Track history (hours):
 
Tides and Currents Weather Stations Pressure Air Temp Water Temp Dewpoint Dewpoint Depression Visibility Wind Speed Wind Dir Waves Ship Positions

North American

Owner: NORTH AMERICAN INC, SEATTLE, WA. More information available from US FCC via Universal Licensing System and Coast Guard Vessel Documentation Center.

Last reported at 2015-Apr-07 15:09 UTC. Time now 2015-May-27 01:53 UTC.
Position N 47°41' W 122°29'.
Warning: this ship's position is 49 days out of date.

Length 38 m; draft 2.5 m.

Type: Fishing. MMSI: 367307370.

Date/timePositionNaut miles runAvg speedWind from/ knotsBaromVisibWave heightAir tempDewpointWater temp
2015-Apr-07 15:09N 47°41' W 122°29'0 0.4
2015-Apr-07 14:33N 47°41' W 122°29'1 0.5
2015-Apr-07 13:34N 47°42' W 122°29'1 0.5
2015-Apr-07 12:33N 47°42' W 122°29'8 8.0
2015-Apr-07 11:33N 47°50' W 122°29'1010.0
2015-Apr-07 10:33N 47°59' W 122°36'1410.3
2015-Apr-07 09:12N 48°11' W 122°48'610.0
2015-Apr-07 08:33N 48°11' W 122°57'9 9.4
2015-Apr-07 07:33N 48°12' W 123°11'9 8.6
2015-Apr-07 06:33N 48°12' W 123°24'9 8.6
2015-Apr-07 05:33N 48°12' W 123°37'10 9.4
2015-Apr-07 04:32N 48°12' W 123°52'10 9.1
2015-Apr-07 03:24N 48°15' W 124°06'8 9.6
2015-Apr-07 02:33N 48°19' W 124°17'10 9.9
2015-Apr-07 01:33N 48°23' W 124°31'1110.8
2015-Apr-07 00:33N 48°27' W 124°46'1010.0
2015-Apr-06 23:32N 48°28' W 125°01'19 9.7
2015-Apr-06 21:33N 48°34' W 125°29'1010.1
2015-Apr-06 20:33N 48°37' W 125°43'10 9.9
2015-Apr-06 19:33N 48°39' W 125°58'10 9.8
2015-Apr-06 18:30N 48°42' W 126°13'  
Track history (hours):
 
Tides and Currents Weather Stations Pressure Air Temp Water Temp Dewpoint Dewpoint Depression Visibility Wind Speed Wind Dir Waves Ship Positions

North American

Owner: NORTH AMERICAN INC, SEATTLE, WA. More information available from US FCC via Universal Licensing System and Coast Guard Vessel Documentation Center.

Last reported at 2015-Apr-07 15:09 UTC. Time now 2015-May-27 01:53 UTC.
Position N 47°41' W 122°29'.
Warning: this ship's position is 49 days out of date.

Length 38 m; draft 2.5 m.

Type: Fishing. MMSI: 367307370.

Date/timePositionNaut miles runAvg speedWind from/ knotsBaromVisibWave heightAir tempDewpointWater temp
2015-Apr-07 15:09N 47°41' W 122°29'0 0.4
2015-Apr-07 14:33N 47°41' W 122°29'1 0.5
2015-Apr-07 13:34N 47°42' W 122°29'1 0.5
2015-Apr-07 12:33N 47°42' W 122°29'8 8.0
2015-Apr-07 11:33N 47°50' W 122°29'1010.0
2015-Apr-07 10:33N 47°59' W 122°36'1410.3
2015-Apr-07 09:12N 48°11' W 122°48'610.0
2015-Apr-07 08:33N 48°11' W 122°57'9 9.4
2015-Apr-07 07:33N 48°12' W 123°11'9 8.6
2015-Apr-07 06:33N 48°12' W 123°24'9 8.6
2015-Apr-07 05:33N 48°12' W 123°37'10 9.4
2015-Apr-07 04:32N 48°12' W 123°52'10 9.1
2015-Apr-07 03:24N 48°15' W 124°06'8 9.6
2015-Apr-07 02:33N 48°19' W 124°17'10 9.9
2015-Apr-07 01:33N 48°23' W 124°31'1110.8
2015-Apr-07 00:33N 48°27' W 124°46'1010.0
2015-Apr-06 23:32N 48°28' W 125°01'19 9.7
2015-Apr-06 21:33N 48°34' W 125°29'1010.1
2015-Apr-06 20:33N 48°37' W 125°43'10 9.9
2015-Apr-06 19:33N 48°39' W 125°58'10 9.8
2015-Apr-06 18:30N 48°42' W 126°13'  

Dump ship's entire track history